Time;durP1;ratioP1;P1;durP2;ratioP2;P2;SDS_P1;SDS_P2;PMS_P1;PMS_P2;Temp;Humidity;BMP_temperature;BMP_pressure;BME280_temperature;BME280_humidity;BME280_pressure;Samples;Min_cycle;Max_cycle;Signal;HPM_P1;HPM_P2
2022/08/29 00:02:08;;;;;;;12.23;2.70;;;17.10;98.10;;;;;;5139489;27;20129;-76
2022/08/29 00:04:34;;;;;;;5.03;2.20;;;17.10;97.80;;;;;;5135890;27;20045;-76
2022/08/29 00:06:59;;;;;;;3.67;2.53;;;17.10;97.80;;;;;;5132185;27;20135;-76
2022/08/29 00:09:25;;;;;;;4.20;2.15;;;17.00;97.80;;;;;;5134176;27;20043;-77
2022/08/29 00:11:51;;;;;;;3.72;2.67;;;17.00;97.90;;;;;;5124933;27;20047;-76
2022/08/29 00:14:17;;;;;;;6.35;3.05;;;17.00;98.00;;;;;;5124553;27;20049;-76
2022/08/29 00:16:43;;;;;;;4.38;2.47;;;17.00;98.00;;;;;;5102997;27;20051;-76
2022/08/29 00:19:09;;;;;;;4.07;2.83;;;17.00;98.00;;;;;;5129060;27;20058;-76
2022/08/29 00:21:34;;;;;;;5.18;2.55;;;17.00;98.10;;;;;;5133478;27;20050;-77
2022/08/29 00:24:00;;;;;;;6.47;2.95;;;17.00;98.10;;;;;;5124530;27;20040;-77
2022/08/29 00:26:26;;;;;;;4.78;2.47;;;17.00;98.10;;;;;;5138567;27;20681;-77
2022/08/29 00:28:51;;;;;;;7.22;3.05;;;16.90;98.10;;;;;;5136300;27;20111;-77
2022/08/29 00:31:17;;;;;;;11.68;2.97;;;16.90;98.10;;;;;;5135545;27;20139;-76
2022/08/29 00:33:43;;;;;;;5.45;3.22;;;16.90;98.10;;;;;;5119957;27;20034;-77
2022/08/29 00:36:09;;;;;;;4.15;2.50;;;16.90;98.20;;;;;;5131389;27;20471;-77
2022/08/29 00:38:35;;;;;;;9.13;4.10;;;16.90;98.30;;;;;;5125515;27;20043;-77
2022/08/29 00:41:02;;;;;;;4.18;2.55;;;16.90;98.30;;;;;;5125413;27;20047;-77
2022/08/29 00:43:33;;;;;;;18.88;3.08;;;16.90;98.40;;;;;;5128267;27;20034;-76
2022/08/29 00:46:26;;;;;;;8.82;2.97;;;16.90;98.40;;;;;;5131786;27;20046;-77
2022/08/29 00:48:55;;;;;;;3.47;2.93;;;16.90;98.30;;;;;;5127816;27;20035;-77
2022/08/29 00:51:22;;;;;;;4.22;2.83;;;16.80;98.40;;;;;;5127392;27;20107;-77
2022/08/29 00:53:56;;;;;;;4.78;3.22;;;16.90;98.50;;;;;;5130005;27;20049;-76
2022/08/29 00:56:23;;;;;;;5.45;3.35;;;16.80;98.50;;;;;;5115083;27;20391;-77
2022/08/29 00:58:56;;;;;;;6.25;3.13;;;16.90;98.60;;;;;;5126618;27;20130;-76
2022/08/29 01:01:22;;;;;;;6.63;3.22;;;16.80;98.70;;;;;;5130060;27;20504;-77
2022/08/29 01:03:49;;;;;;;6.07;2.60;;;16.80;98.80;;;;;;5132766;27;20054;-77
2022/08/29 01:06:16;;;;;;;6.20;3.10;;;16.80;98.80;;;;;;5123638;27;20050;-76
2022/08/29 01:08:43;;;;;;;5.20;2.97;;;16.80;98.90;;;;;;5124416;27;20078;-77
2022/08/29 01:13:58;;;;;;;4.18;2.20;;;16.70;99.20;;;;;;5128230;27;20049;-76
2022/08/29 01:16:25;;;;;;;7.18;3.03;;;16.70;99.40;;;;;;5119623;27;20134;-76
2022/08/29 01:18:55;;;;;;;7.13;3.35;;;16.70;99.50;;;;;;5139388;27;20077;-76
2022/08/29 01:21:35;;;;;;;4.95;2.85;;;16.70;99.50;;;;;;5123730;27;20034;-76
2022/08/29 01:24:08;;;;;;;6.85;3.65;;;16.70;99.60;;;;;;5133719;27;20043;-76
2022/08/29 01:26:34;;;;;;;4.13;2.58;;;16.70;99.70;;;;;;5122267;27;20054;-76
2022/08/29 01:29:00;;;;;;;5.93;3.00;;;16.70;99.80;;;;;;5124658;27;20055;-76
2022/08/29 01:31:35;;;;;;;11.20;2.72;;;16.80;99.90;;;;;;5129320;27;20222;-76
2022/08/29 01:34:01;;;;;;;4.22;2.72;;;16.70;99.90;;;;;;5143018;27;20059;-76
2022/08/29 01:36:37;;;;;;;6.10;2.72;;;16.70;99.90;;;;;;5136876;27;20099;-76
2022/08/29 01:39:04;;;;;;;4.40;3.03;;;16.70;99.90;;;;;;5135250;27;20057;-75
2022/08/29 01:41:31;;;;;;;3.92;2.90;;;16.70;99.90;;;;;;5143177;27;20046;-76
2022/08/29 01:43:57;;;;;;;5.03;2.80;;;16.80;99.90;;;;;;5129793;27;20051;-75
2022/08/29 01:46:29;;;;;;;5.07;2.70;;;16.70;99.90;;;;;;5136618;27;20931;-76
2022/08/29 01:48:56;;;;;;;6.47;2.92;;;16.70;99.90;;;;;;5114059;27;20722;-76
2022/08/29 01:51:23;;;;;;;5.97;3.20;;;16.70;99.90;;;;;;5137789;27;20043;-76
2022/08/29 01:53:49;;;;;;;3.78;3.05;;;16.70;99.90;;;;;;5137863;27;20061;-76
2022/08/29 01:56:21;;;;;;;7.25;3.03;;;16.70;99.90;;;;;;5107669;27;20101;-76
2022/08/29 01:58:49;;;;;;;5.33;2.67;;;16.70;99.90;;;;;;5123171;27;20136;-77
2022/08/29 02:01:17;;;;;;;4.53;2.60;;;16.70;99.90;;;;;;5137759;27;20138;-77
2022/08/29 02:03:44;;;;;;;5.78;3.08;;;16.70;99.90;;;;;;5140693;27;20089;-77
2022/08/29 02:06:10;;;;;;;7.10;2.95;;;16.70;99.90;;;;;;5143308;27;20057;-76
2022/08/29 02:08:41;;;;;;;5.45;3.20;;;16.70;99.90;;;;;;5107842;27;20589;-76
2022/08/29 02:11:09;;;;;;;5.95;3.03;;;16.70;99.90;;;;;;5127684;27;20101;-76
2022/08/29 02:13:40;;;;;;;4.70;2.67;;;16.70;99.90;;;;;;5134579;27;20050;-76
2022/08/29 02:16:06;;;;;;;5.80;2.78;;;16.70;99.90;;;;;;5131832;27;20759;-76
2022/08/29 02:18:32;;;;;;;6.10;2.85;;;16.70;99.90;;;;;;5135780;27;20046;-76
2022/08/29 02:20:58;;;;;;;4.40;2.95;;;16.80;99.90;;;;;;5135229;27;20049;-76
2022/08/29 02:23:24;;;;;;;6.07;2.85;;;16.80;99.90;;;;;;5133619;27;20035;-77
2022/08/29 02:25:50;;;;;;;4.28;2.70;;;16.80;99.90;;;;;;5123045;27;20568;-77
2022/08/29 02:28:18;;;;;;;5.45;2.78;;;16.80;99.90;;;;;;5133649;27;20564;-76
2022/08/29 02:30:47;;;;;;;5.80;2.95;;;16.80;99.90;;;;;;5131278;27;20417;-77
2022/08/29 02:33:15;;;;;;;3.45;2.33;;;16.70;99.90;;;;;;5128905;27;20539;-77
2022/08/29 02:35:42;;;;;;;4.22;2.60;;;16.80;99.90;;;;;;5129175;27;20110;-77
2022/08/29 02:38:07;;;;;;;5.72;3.03;;;16.70;99.90;;;;;;5129603;27;20561;-77
2022/08/29 02:40:34;;;;;;;2.90;2.25;;;16.70;99.90;;;;;;5138241;27;20091;-76
2022/08/29 02:43:00;;;;;;;3.00;2.17;;;16.80;99.90;;;;;;5138352;27;20073;-77
2022/08/29 02:45:26;;;;;;;6.07;2.53;;;16.80;99.90;;;;;;5124618;27;20865;-76
2022/08/29 02:47:51;;;;;;;5.15;2.75;;;16.70;99.90;;;;;;5130399;27;20069;-77
2022/08/29 02:50:18;;;;;;;3.75;2.40;;;16.70;99.90;;;;;;5139413;27;20591;-77
2022/08/29 02:52:44;;;;;;;10.63;3.10;;;16.70;99.90;;;;;;5140320;27;20154;-76
2022/08/29 02:55:15;;;;;;;6.10;2.50;;;16.70;99.90;;;;;;5135292;27;20046;-77
2022/08/29 02:57:44;;;;;;;4.07;2.60;;;16.70;99.90;;;;;;5111173;27;20046;-77
2022/08/29 03:00:16;;;;;;;10.75;3.40;;;16.70;99.90;;;;;;5129784;27;20083;-77
2022/08/29 03:02:43;;;;;;;6.00;2.58;;;16.70;99.90;;;;;;5128944;27;20045;-76
2022/08/29 03:05:09;;;;;;;7.47;2.60;;;16.70;99.90;;;;;;5126638;27;20046;-76
2022/08/29 03:07:35;;;;;;;5.82;2.60;;;16.70;99.90;;;;;;5138644;27;20054;-76
2022/08/29 03:10:03;;;;;;;9.38;3.95;;;16.70;99.90;;;;;;5130570;27;20047;-76
2022/08/29 03:12:28;;;;;;;7.03;2.80;;;16.70;99.90;;;;;;5127711;27;20413;-76
2022/08/29 03:14:55;;;;;;;4.15;2.08;;;16.70;99.90;;;;;;5129467;27;20046;-76
2022/08/29 03:17:21;;;;;;;2.50;2.10;;;16.70;99.90;;;;;;5137672;27;20537;-77
2022/08/29 03:19:46;;;;;;;4.75;2.30;;;16.70;99.90;;;;;;5127061;27;20047;-77
2022/08/29 03:22:12;;;;;;;4.22;2.53;;;16.70;99.90;;;;;;5138019;27;20050;-76
2022/08/29 03:24:38;;;;;;;2.67;2.45;;;16.70;99.90;;;;;;5139064;27;20114;-75
2022/08/29 03:27:04;;;;;;;6.45;2.28;;;16.70;99.90;;;;;;5086688;27;1110557;-76
2022/08/29 03:29:29;;;;;;;4.30;2.35;;;16.80;99.90;;;;;;5141912;27;20061;-76
2022/08/29 03:31:57;;;;;;;4.40;2.00;;;16.80;99.90;;;;;;5117659;27;20379;-76
2022/08/29 03:34:26;;;;;;;4.47;2.42;;;16.80;99.90;;;;;;5131069;27;20093;-76
2022/08/29 03:36:52;;;;;;;8.02;2.55;;;16.80;99.90;;;;;;5123212;27;20128;-77
2022/08/29 03:39:18;;;;;;;5.07;3.25;;;16.80;99.90;;;;;;5122389;27;20043;-76
2022/08/29 03:41:44;;;;;;;4.38;2.40;;;16.80;99.90;;;;;;5103660;27;20104;-76
2022/08/29 03:44:11;;;;;;;2.67;1.92;;;16.80;99.90;;;;;;5133083;27;20038;-76
2022/08/29 03:46:38;;;;;;;3.25;2.42;;;16.80;99.90;;;;;;5108777;27;20547;-76
2022/08/29 03:49:06;;;;;;;5.75;2.00;;;16.80;99.90;;;;;;5130692;27;20051;-76
2022/08/29 03:51:37;;;;;;;3.28;2.25;;;16.80;99.90;;;;;;5127267;27;20151;-76
2022/08/29 03:54:03;;;;;;;5.82;2.30;;;16.80;99.90;;;;;;5129353;27;20493;-76
2022/08/29 03:56:29;;;;;;;5.03;2.25;;;16.80;99.90;;;;;;5124491;27;20042;-76
2022/08/29 03:58:55;;;;;;;7.68;2.45;;;16.70;99.90;;;;;;5141735;27;20611;-76
2022/08/29 04:01:25;;;;;;;5.53;3.15;;;16.70;99.90;;;;;;5138645;27;20230;-76
2022/08/29 04:03:52;;;;;;;3.85;2.60;;;16.70;99.90;;;;;;5139303;27;20139;-76
2022/08/29 04:06:18;;;;;;;3.00;2.67;;;16.70;99.90;;;;;;5122795;27;20059;-76
2022/08/29 04:08:48;;;;;;;3.75;2.30;;;16.70;99.90;;;;;;5138344;27;20043;-76
2022/08/29 04:11:16;;;;;;;7.68;3.28;;;16.70;99.90;;;;;;5119571;27;20973;-76
2022/08/29 04:13:42;;;;;;;7.93;2.75;;;16.70;99.90;;;;;;5134929;27;20058;-76
2022/08/29 04:16:11;;;;;;;5.80;2.35;;;16.70;99.90;;;;;;5132048;27;20078;-75
2022/08/29 04:18:37;;;;;;;6.40;2.30;;;16.70;99.90;;;;;;5137051;27;20054;-76
2022/08/29 04:21:04;;;;;;;5.93;2.55;;;16.70;99.90;;;;;;5133878;27;20050;-76
2022/08/29 04:23:30;;;;;;;4.30;2.13;;;17.60;99.90;;;;;;5138638;27;20126;-77
2022/08/29 04:25:56;;;;;;;6.35;2.00;;;16.60;99.90;;;;;;5137809;27;20210;-76
2022/08/29 04:28:22;;;;;;;4.28;2.35;;;16.60;99.90;;;;;;5137400;27;20844;-76
2022/08/29 04:30:50;;;;;;;3.85;2.20;;;16.60;99.90;;;;;;5134770;27;20050;-76
2022/08/29 04:33:16;;;;;;;3.85;2.47;;;16.60;99.90;;;;;;5137258;27;20055;-76
2022/08/29 04:35:42;;;;;;;5.15;2.40;;;16.50;99.90;;;;;;5134954;27;20039;-75
2022/08/29 04:38:07;;;;;;;4.35;2.17;;;16.50;99.90;;;;;;5137635;27;20043;-76
2022/08/29 04:40:35;;;;;;;4.63;3.15;;;16.50;99.90;;;;;;5135757;27;20046;-76
2022/08/29 04:43:01;;;;;;;3.22;2.40;;;16.50;99.90;;;;;;5137956;27;20091;-76
2022/08/29 04:45:27;;;;;;;4.13;2.50;;;16.50;99.90;;;;;;5136376;27;20050;-76
2022/08/29 04:47:52;;;;;;;7.80;2.80;;;16.50;99.90;;;;;;5119502;27;20070;-76
2022/08/29 04:50:22;;;;;;;3.55;2.40;;;16.50;99.90;;;;;;5137979;27;20050;-76
2022/08/29 04:52:51;;;;;;;5.70;2.97;;;16.50;99.90;;;;;;5127881;27;20114;-76
2022/08/29 04:55:19;;;;;;;6.22;2.35;;;16.50;99.90;;;;;;5116469;27;20050;-76
2022/08/29 04:57:44;;;;;;;7.18;2.50;;;16.50;99.90;;;;;;5135435;27;20122;-76
2022/08/29 05:00:14;;;;;;;4.38;2.67;;;16.40;99.90;;;;;;5134596;27;20050;-77
2022/08/29 05:02:41;;;;;;;4.25;2.22;;;16.50;99.90;;;;;;5135750;27;20043;-77
2022/08/29 05:05:10;;;;;;;4.82;2.17;;;16.40;99.90;;;;;;5133688;27;20042;-76
2022/08/29 05:07:36;;;;;;;4.10;2.78;;;16.50;99.90;;;;;;5136520;27;20058;-77
2022/08/29 05:10:09;;;;;;;4.60;2.53;;;16.50;99.90;;;;;;5136606;27;20089;-77
2022/08/29 05:12:36;;;;;;;;;;;16.50;99.90;;;;;;5117357;27;20046;-76
2022/08/29 05:15:03;;;;;;;3.80;2.25;;;16.40;99.90;;;;;;5132973;27;20052;-76
2022/08/29 05:17:29;;;;;;;4.63;2.38;;;16.40;99.90;;;;;;5132466;27;20049;-76
2022/08/29 05:19:55;;;;;;;3.50;2.60;;;16.50;99.90;;;;;;5135176;27;20050;-76
2022/08/29 05:22:22;;;;;;;5.53;2.50;;;16.50;99.90;;;;;;5134981;27;20225;-76
2022/08/29 05:24:48;;;;;;;6.05;2.92;;;16.50;99.90;;;;;;5133347;27;20121;-76
2022/08/29 05:27:17;;;;;;;7.35;2.58;;;16.60;99.90;;;;;;5135823;27;20113;-76
2022/08/29 05:29:45;;;;;;;5.78;2.50;;;16.60;99.90;;;;;;5135661;27;20131;-76
2022/08/29 05:32:17;;;;;;;3.92;2.30;;;16.60;99.90;;;;;;5131240;27;20042;-76
2022/08/29 05:34:44;;;;;;;5.38;2.05;;;16.60;99.90;;;;;;5118906;27;20046;-76
2022/08/29 05:37:13;;;;;;;4.60;2.67;;;16.70;99.90;;;;;;5135169;27;20050;-76
2022/08/29 05:39:41;;;;;;;5.03;2.30;;;16.70;99.90;;;;;;5137836;27;20449;-76
2022/08/29 05:42:08;;;;;;;5.88;2.20;;;16.80;99.90;;;;;;5131861;27;20466;-76
2022/08/29 05:44:35;;;;;;;6.68;2.38;;;16.40;99.90;;;;;;5137752;27;20046;-76
2022/08/29 05:47:05;;;;;;;7.60;2.60;;;16.90;99.90;;;;;;5125280;27;20130;-77
2022/08/29 05:49:31;;;;;;;7.00;2.72;;;16.60;99.90;;;;;;5120184;27;20406;-76
2022/08/29 05:51:59;;;;;;;4.20;2.10;;;16.90;99.90;;;;;;5130996;27;20043;-76
2022/08/29 05:54:25;;;;;;;5.22;2.83;;;16.90;99.90;;;;;;5135089;27;20047;-76
2022/08/29 05:56:50;;;;;;;6.78;2.67;;;16.90;99.90;;;;;;5114045;27;20043;-76
2022/08/29 05:59:17;;;;;;;6.20;2.65;;;17.00;99.90;;;;;;5128753;27;20050;-76
2022/08/29 06:01:44;;;;;;;4.50;2.10;;;17.10;99.90;;;;;;5105483;27;20043;-76
2022/08/29 06:04:10;;;;;;;4.68;2.63;;;17.10;99.90;;;;;;5127855;27;20054;-76
2022/08/29 06:06:36;;;;;;;5.55;2.50;;;17.20;99.90;;;;;;5099471;27;20051;-76
2022/08/29 06:09:02;;;;;;;6.03;2.22;;;17.20;99.90;;;;;;5107159;27;20456;-77
2022/08/29 06:11:30;;;;;;;2.70;2.17;;;17.30;99.90;;;;;;5129286;27;20640;-76
2022/08/29 06:13:58;;;;;;;5.90;2.80;;;17.30;99.90;;;;;;5130735;27;20046;-76
2022/08/29 06:16:25;;;;;;;6.68;2.38;;;17.50;99.90;;;;;;5128949;27;20550;-77
2022/08/29 06:18:51;;;;;;;7.13;2.95;;;17.50;99.90;;;;;;5136856;27;20093;-78
2022/08/29 06:21:17;;;;;;;4.45;2.80;;;17.60;99.90;;;;;;5119374;27;20110;-77
2022/08/29 06:23:44;;;;;;;3.17;2.80;;;17.60;99.90;;;;;;5132414;27;20057;-77
2022/08/29 06:26:10;;;;;;;4.88;2.95;;;17.70;99.90;;;;;;5107322;27;20039;-77
2022/08/29 06:28:39;;;;;;;6.03;2.55;;;17.70;99.90;;;;;;5120911;27;20062;-77
2022/08/29 06:31:12;;;;;;;5.53;2.38;;;17.90;99.90;;;;;;5123593;27;20773;-77
2022/08/29 06:33:37;;;;;;;;;;;18.00;99.90;;;;;;5134443;27;20046;-77
2022/08/29 06:36:05;;;;;;;6.05;1.95;;;18.10;99.90;;;;;;5121213;27;20795;-74
2022/08/29 06:38:31;;;;;;;5.68;2.70;;;18.20;99.90;;;;;;5118511;27;20054;-73
2022/08/29 06:41:05;;;;;;;6.15;2.47;;;18.40;99.90;;;;;;5088219;27;20054;-73
2022/08/29 06:43:31;;;;;;;5.55;2.22;;;18.50;99.90;;;;;;5132745;27;20047;-75
2022/08/29 06:45:56;;;;;;;3.67;2.03;;;18.70;99.90;;;;;;5126539;27;20182;-73
2022/08/29 06:48:22;;;;;;;5.43;3.00;;;18.80;99.90;;;;;;5121473;27;20146;-74
2022/08/29 06:50:48;;;;;;;4.60;2.38;;;18.90;99.90;;;;;;5131780;27;20729;-73
2022/08/29 06:53:13;;;;;;;9.60;2.25;;;18.90;99.90;;;;;;5123715;27;20119;-75
2022/08/29 06:55:39;;;;;;;4.13;2.03;;;19.00;99.90;;;;;;5128158;27;20043;-73
2022/08/29 06:58:05;;;;;;;8.50;3.15;;;19.10;99.90;;;;;;5128202;27;20842;-73
2022/08/29 07:00:31;;;;;;;4.43;2.92;;;19.10;99.90;;;;;;5138065;27;20054;-73
2022/08/29 07:02:57;;;;;;;5.40;2.97;;;19.10;99.90;;;;;;5134463;27;20043;-74
2022/08/29 07:05:23;;;;;;;4.93;2.50;;;19.10;99.90;;;;;;5131877;27;20942;-73
2022/08/29 07:07:50;;;;;;;3.40;2.42;;;19.10;99.90;;;;;;5129303;27;20106;-72
2022/08/29 07:10:18;;;;;;;4.10;2.63;;;19.10;99.90;;;;;;5124077;27;20861;-72
2022/08/29 07:12:43;;;;;;;7.28;2.60;;;19.10;99.90;;;;;;5136420;27;20053;-72
2022/08/29 07:15:09;;;;;;;7.55;2.42;;;19.10;99.90;;;;;;5115406;27;20046;-72
2022/08/29 07:17:35;;;;;;;4.63;2.58;;;19.10;99.90;;;;;;5136959;27;20046;-73
2022/08/29 07:20:02;;;;;;;5.93;2.70;;;19.20;99.90;;;;;;5137665;27;20857;-73
2022/08/29 07:22:27;;;;;;;8.05;2.67;;;19.30;99.90;;;;;;5135829;27;20030;-73
2022/08/29 07:24:57;;;;;;;7.05;2.58;;;19.40;99.90;;;;;;5095234;27;20045;-74
2022/08/29 07:27:22;;;;;;;6.72;2.72;;;19.40;99.90;;;;;;5131983;27;20047;-74
2022/08/29 07:29:48;;;;;;;6.47;3.05;;;19.60;99.90;;;;;;5118890;27;20577;-71
2022/08/29 07:32:14;;;;;;;9.60;3.05;;;19.80;99.90;;;;;;5120066;27;20083;-73
2022/08/29 07:34:39;;;;;;;9.93;3.25;;;19.90;99.90;;;;;;5099982;27;20050;-72
2022/08/29 07:37:05;;;;;;;5.82;2.97;;;20.00;99.90;;;;;;5112847;27;20304;-72
2022/08/29 07:39:31;;;;;;;7.93;3.97;;;20.10;99.90;;;;;;5120018;27;20581;-72
2022/08/29 07:41:57;;;;;;;8.35;3.28;;;20.00;99.90;;;;;;5131338;27;20050;-73
2022/08/29 07:44:25;;;;;;;7.57;2.83;;;20.30;99.90;;;;;;5130762;27;20035;-73
2022/08/29 07:46:56;;;;;;;6.68;3.85;;;20.40;99.90;;;;;;5121669;27;20073;-74
2022/08/29 07:49:23;;;;;;;6.60;3.50;;;20.40;99.90;;;;;;5117478;27;20047;-73
2022/08/29 07:51:52;;;;;;;8.30;3.15;;;20.60;99.90;;;;;;5112701;27;20117;-75
2022/08/29 07:54:18;;;;;;;7.18;2.95;;;21.60;99.90;;;;;;5121604;27;20097;-73
2022/08/29 07:56:47;;;;;;;5.72;3.05;;;22.60;99.90;;;;;;5123704;27;20042;-74
2022/08/29 07:59:13;;;;;;;13.60;3.58;;;23.00;99.90;;;;;;5102038;27;20043;-75
2022/08/29 08:01:39;;;;;;;7.40;3.38;;;23.00;99.90;;;;;;5126598;27;20096;-72
2022/08/29 08:04:05;;;;;;;22.10;3.05;;;23.10;99.90;;;;;;5116666;27;20042;-73
2022/08/29 08:06:33;;;;;;;17.40;3.55;;;23.70;99.90;;;;;;5129798;27;20154;-73
2022/08/29 08:08:59;;;;;;;5.28;2.90;;;24.20;99.90;;;;;;5118441;27;20054;-73
2022/08/29 08:11:26;;;;;;;8.98;3.45;;;24.40;99.90;;;;;;5137634;27;20051;-73
2022/08/29 08:13:56;;;;;;;9.82;3.55;;;23.80;99.70;;;;;;5131668;27;20057;-74
2022/08/29 08:16:24;;;;;;;4.70;3.10;;;23.60;99.80;;;;;;5129182;27;20077;-76
2022/08/29 08:18:50;;;;;;;8.85;3.03;;;22.80;99.70;;;;;;5117935;27;20054;-76
2022/08/29 08:21:16;;;;;;;5.93;3.13;;;22.10;99.90;;;;;;5118434;27;20449;-75
2022/08/29 08:23:42;;;;;;;5.30;2.40;;;21.80;99.90;;;;;;5117601;27;20129;-76
2022/08/29 08:26:09;;;;;;;5.32;2.42;;;22.70;99.90;;;;;;5133756;27;20046;-74
2022/08/29 08:28:35;;;;;;;7.10;3.22;;;23.80;99.90;;;;;;5113629;27;20438;-75
2022/08/29 08:31:04;;;;;;;9.57;3.35;;;23.50;99.10;;;;;;5114855;27;20050;-76
2022/08/29 08:33:30;;;;;;;9.73;2.97;;;22.80;99.60;;;;;;5115876;27;20599;-75
2022/08/29 08:35:56;;;;;;;4.65;2.67;;;22.50;99.80;;;;;;5102387;27;20040;-74
2022/08/29 08:38:22;;;;;;;6.88;3.35;;;22.20;99.90;;;;;;5112953;27;20095;-74
2022/08/29 08:40:59;;;;;;;8.48;3.00;;;21.80;99.90;;;;;;5111231;27;20058;-77
2022/08/29 08:43:52;;;;;;;11.65;3.85;;;21.80;99.90;;;;;;5105641;27;20057;-81
2022/08/29 08:46:27;;;;;;;5.88;2.78;;;21.60;99.90;;;;;;5108394;27;21701;-87
2022/08/29 08:48:55;;;;;;;7.32;3.55;;;21.50;99.90;;;;;;5111402;27;20039;-82
2022/08/29 08:51:27;;;;;;;10.20;4.47;;;21.30;99.90;;;;;;5115251;27;20283;-85
2022/08/29 08:53:57;;;;;;;6.40;3.35;;;21.00;99.90;;;;;;5104425;27;20043;-80
2022/08/29 08:56:41;;;;;;;5.47;2.92;;;20.90;99.90;;;;;;5107695;27;20046;-82
2022/08/29 08:59:18;;;;;;;8.50;3.30;;;20.90;99.90;;;;;;5111903;27;20175;-82
2022/08/29 09:01:59;;;;;;;10.90;4.30;;;20.90;99.90;;;;;;5111236;27;20043;-81
2022/08/29 09:04:39;;;;;;;8.55;3.92;;;20.90;99.90;;;;;;5113527;27;20532;-81
2022/08/29 09:07:19;;;;;;;7.80;3.63;;;20.90;99.90;;;;;;5103923;27;20191;-77
2022/08/29 09:10:11;;;;;;;9.32;3.80;;;21.10;99.90;;;;;;5112966;27;20418;-81
2022/08/29 09:12:49;;;;;;;7.38;3.50;;;21.00;99.90;;;;;;5079578;27;20092;-75
2022/08/29 09:15:19;;;;;;;8.95;3.80;;;21.00;99.90;;;;;;5118380;27;20745;-83
2022/08/29 09:17:57;;;;;;;11.00;3.80;;;21.00;99.90;;;;;;5112901;27;20146;-81
2022/08/29 09:20:29;;;;;;;14.85;4.75;;;21.00;99.90;;;;;;5115839;28;20051;-76
2022/08/29 09:23:10;;;;;;;8.88;4.20;;;20.90;99.90;;;;;;5117222;27;20394;-80
2022/08/29 09:25:36;;;;;;;6.75;4.10;;;20.70;99.90;;;;;;5111501;28;20043;-77
2022/08/29 09:28:05;;;;;;;9.20;4.13;;;20.60;99.90;;;;;;5129180;27;20085;-79
2022/08/29 09:30:32;;;;;;;8.68;4.18;;;20.70;99.90;;;;;;5134990;27;20162;-81
2022/08/29 09:33:03;;;;;;;6.57;3.70;;;20.70;99.90;;;;;;5126169;27;20046;-77
2022/08/29 09:35:41;;;;;;;6.88;3.45;;;20.80;99.90;;;;;;5130448;27;20074;-79
2022/08/29 09:38:16;;;;;;;9.13;3.78;;;21.00;99.90;;;;;;5138849;27;20394;-79
2022/08/29 09:40:41;;;;;;;10.05;3.97;;;21.00;99.90;;;;;;5136196;27;20091;-80
2022/08/29 09:43:07;;;;;;;10.00;3.95;;;21.00;99.90;;;;;;5136883;27;20224;-78
2022/08/29 09:45:33;;;;;;;6.93;3.50;;;21.00;99.90;;;;;;5133353;27;20611;-79
2022/08/29 09:48:16;;;;;;;9.52;3.55;;;21.00;99.90;;;;;;5137035;27;20100;-79
2022/08/29 09:50:42;;;;;;;;;;;21.00;99.90;;;;;;5134714;27;20055;-77
2022/08/29 09:53:08;;;;;;;9.55;3.88;;;20.90;99.90;;;;;;5132672;27;19923;-79
2022/08/29 09:55:41;;;;;;;9.70;3.67;;;20.90;99.90;;;;;;5128748;27;20046;-78
2022/08/29 09:58:17;;;;;;;9.65;3.58;;;20.90;99.90;;;;;;5136288;27;20091;-78
2022/08/29 10:01:04;;;;;;;8.38;3.45;;;20.80;99.90;;;;;;5113175;27;20560;-80
2022/08/29 10:03:34;;;;;;;6.13;3.85;;;20.80;99.90;;;;;;5138733;27;20051;-82
2022/08/29 10:06:19;;;;;;;7.93;4.30;;;20.80;99.90;;;;;;5139054;27;20388;-81
2022/08/29 10:09:05;;;;;;;6.10;3.45;;;20.80;99.90;;;;;;5139392;27;20046;-82
2022/08/29 10:11:53;;;;;;;10.40;4.30;;;20.80;99.90;;;;;;5137636;27;20047;-78
2022/08/29 10:14:41;;;;;;;5.43;3.53;;;20.90;99.90;;;;;;5131221;27;20206;-82
2022/08/29 10:20:15;;;;;;;6.65;3.92;;;21.00;99.90;;;;;;5138484;27;20130;-82
2022/08/29 10:22:47;;;;;;;7.43;3.75;;;20.90;99.90;;;;;;5138518;27;20051;-77
2022/08/29 10:25:27;;;;;;;8.65;3.97;;;21.00;99.90;;;;;;5114877;27;20130;-76
2022/08/29 10:27:56;;;;;;;8.30;3.80;;;21.00;99.90;;;;;;5141066;27;20061;-76
2022/08/29 10:30:28;;;;;;;10.30;4.40;;;21.20;99.90;;;;;;5142201;27;20611;-79
2022/08/29 10:33:14;;;;;;;6.60;3.60;;;21.30;99.90;;;;;;5141346;27;20568;-80
2022/08/29 10:35:49;;;;;;;5.60;3.17;;;21.50;99.90;;;;;;5138922;27;20115;-78
2022/08/29 10:38:44;;;;;;;6.13;3.45;;;21.70;99.90;;;;;;5130276;27;20062;-79
2022/08/29 10:41:29;;;;;;;7.28;3.45;;;21.80;99.90;;;;;;5129609;27;20043;-77
2022/08/29 10:44:29;;;;;;;9.32;3.50;;;21.50;99.90;;;;;;5120105;27;20804;-79
2022/08/29 10:46:54;;;;;;;5.75;3.25;;;21.40;99.90;;;;;;5140712;27;20130;-78
2022/08/29 10:49:50;;;;;;;7.43;3.35;;;21.30;99.90;;;;;;5141119;27;20051;-77
2022/08/29 10:53:00;;;;;;;6.22;3.10;;;21.50;99.90;;;;;;5139440;27;20059;-74
2022/08/29 10:55:40;;;;;;;8.00;3.00;;;21.40;99.90;;;;;;5131359;27;20652;-76
2022/08/29 10:58:16;;;;;;;6.47;3.47;;;21.40;99.90;;;;;;5136629;27;20607;-76
2022/08/29 11:00:51;;;;;;;6.90;3.45;;;21.40;99.90;;;;;;5123025;27;20894;-77
2022/08/29 11:04:02;;;;;;;5.68;3.95;;;21.40;99.90;;;;;;5123126;27;20058;-79
2022/08/29 11:06:32;;;;;;;10.77;3.67;;;21.60;99.90;;;;;;5125012;27;21258;-79
2022/08/29 11:09:07;;;;;;;6.75;3.58;;;21.50;99.90;;;;;;5130377;27;20090;-80
2022/08/29 11:11:36;;;;;;;4.85;3.50;;;21.50;99.90;;;;;;5105158;27;20039;-79
2022/08/29 11:14:10;;;;;;;3.83;3.10;;;21.60;99.90;;;;;;5102781;27;20055;-78
2022/08/29 11:16:42;;;;;;;10.80;3.92;;;21.60;99.90;;;;;;5118962;27;20052;-80
2022/08/29 11:19:25;;;;;;;5.30;2.72;;;21.70;99.90;;;;;;5132283;27;20046;-80
2022/08/29 11:22:12;;;;;;;8.45;3.30;;;21.70;99.90;;;;;;5121849;27;20125;-78
2022/08/29 11:24:39;;;;;;;9.88;3.45;;;21.90;99.90;;;;;;5135823;27;20081;-82
2022/08/29 11:27:09;;;;;;;8.88;3.10;;;21.90;99.90;;;;;;5133656;27;20083;-75
2022/08/29 11:29:53;;;;;;;8.30;3.15;;;22.10;99.90;;;;;;5122696;27;20061;-78
2022/08/29 11:32:37;;;;;;;;;;;22.30;99.90;;;;;;5143063;27;20592;-82
2022/08/29 11:35:23;;;;;;;6.90;2.65;;;22.40;99.90;;;;;;5127887;27;19946;-80
2022/08/29 11:38:16;;;;;;;6.30;3.17;;;22.30;99.90;;;;;;5127808;27;20090;-80
2022/08/29 11:40:45;;;;;;;;;;;22.30;99.60;;;;;;5129524;27;20099;-74
2022/08/29 11:43:18;;;;;;;7.03;3.17;;;22.30;99.70;;;;;;5122612;27;19995;-78
2022/08/29 11:45:55;;;;;;;4.93;2.63;;;22.10;99.80;;;;;;5132334;27;20051;-78
2022/08/29 11:48:44;;;;;;;4.82;2.67;;;22.10;99.90;;;;;;5127506;27;20367;-77
2022/08/29 11:51:36;;;;;;;4.47;3.30;;;22.00;99.90;;;;;;5140230;27;20050;-78
2022/08/29 11:54:24;;;;;;;5.68;3.20;;;22.00;99.90;;;;;;5127234;27;20047;-74
2022/08/29 11:57:03;;;;;;;6.68;2.75;;;22.10;99.90;;;;;;5130154;27;20595;-77
2022/08/29 11:59:50;;;;;;;8.85;3.53;;;22.10;99.90;;;;;;5133083;27;20088;-81
2022/08/29 12:02:30;;;;;;;8.63;3.83;;;22.30;98.90;;;;;;5102057;27;20058;-78
2022/08/29 12:05:08;;;;;;;7.35;2.92;;;22.50;98.90;;;;;;5120190;27;20042;-80
2022/08/29 12:07:46;;;;;;;5.45;3.00;;;22.60;99.00;;;;;;5120896;27;20151;-81
2022/08/29 12:10:27;;;;;;;6.10;2.38;;;22.90;98.30;;;;;;5109955;27;20469;-80
2022/08/29 12:13:00;;;;;;;3.92;2.35;;;23.20;97.60;;;;;;5137938;27;20046;-78
2022/08/29 12:15:28;;;;;;;9.02;2.55;;;23.40;97.70;;;;;;5120794;27;20399;-76
2022/08/29 12:17:56;;;;;;;4.93;2.72;;;23.40;97.00;;;;;;5135217;27;20045;-79
2022/08/29 12:20:47;;;;;;;4.57;2.55;;;23.30;96.50;;;;;;5138459;27;20043;-78
2022/08/29 12:23:13;;;;;;;3.90;2.78;;;23.50;96.50;;;;;;5138220;27;20435;-79
2022/08/29 12:25:45;;;;;;;5.57;2.92;;;23.50;96.60;;;;;;5138890;27;20647;-82
2022/08/29 12:28:19;;;;;;;6.03;2.72;;;23.30;96.60;;;;;;5135338;27;20058;-81
2022/08/29 12:31:03;;;;;;;3.50;2.40;;;23.30;96.10;;;;;;5138798;27;20448;-75
2022/08/29 12:33:47;;;;;;;5.65;2.97;;;23.20;96.40;;;;;;5120611;27;20039;-79
2022/08/29 12:36:41;;;;;;;5.63;2.83;;;23.00;96.60;;;;;;5120242;27;20054;-78
2022/08/29 12:39:12;;;;;;;;;;;23.00;96.80;;;;;;5119964;27;20145;-84
2022/08/29 12:42:06;;;;;;;6.05;2.85;;;22.80;97.00;;;;;;5118868;27;19930;-82
2022/08/29 12:44:40;;;;;;;5.10;2.92;;;22.70;96.70;;;;;;5101230;27;20553;-78
2022/08/29 12:47:10;;;;;;;4.35;2.70;;;22.50;97.40;;;;;;5118117;27;20100;-76
2022/08/29 12:49:52;;;;;;;3.22;2.85;;;22.50;97.70;;;;;;5126000;27;20043;-79
2022/08/29 12:52:37;;;;;;;4.53;2.42;;;22.30;97.80;;;;;;5134319;27;20051;-80
2022/08/29 12:55:25;;;;;;;5.95;2.50;;;22.00;98.10;;;;;;5130393;27;20233;-81
2022/08/29 12:57:52;;;;;;;7.30;2.67;;;22.00;98.20;;;;;;5114250;27;20115;-80
2022/08/29 13:00:30;;;;;;;6.50;3.13;;;22.00;98.10;;;;;;5128551;27;20760;-81
2022/08/29 13:03:05;;;;;;;7.20;2.78;;;22.00;98.20;;;;;;5134248;27;20102;-76
2022/08/29 13:05:33;;;;;;;6.93;2.42;;;22.00;98.00;;;;;;5137167;27;20038;-82
2022/08/29 13:08:07;;;;;;;4.60;2.75;;;21.90;98.10;;;;;;5137242;27;20051;-80
2022/08/29 13:10:36;;;;;;;6.32;2.60;;;22.00;98.00;;;;;;5135832;27;20046;-80
2022/08/29 13:13:14;;;;;;;5.63;2.78;;;22.10;98.00;;;;;;5134274;27;20043;-78